Time;durP1;ratioP1;P1;durP2;ratioP2;P2;SDS_P1;SDS_P2;PMS_P1;PMS_P2;Temp;Humidity;BMP_temperature;BMP_pressure;BME280_temperature;BME280_humidity;BME280_pressure;Samples;Min_cycle;Max_cycle;Signal;HPM_P1;HPM_P2
2023/05/29 06:54:37;;;;;;;6.78;4.38;;;;;;;24.94;100.00;100602.56;2047531;28;20323;-72
2023/05/29 07:02:01;;;;;;;9.48;5.20;;;;;;;24.32;100.00;100603.50;2003215;29;19928;-72
2023/05/29 07:03:25;;;;;;;13.23;4.82;;;;;;;24.22;100.00;100607.53;2020390;29;20053;-75
2023/05/29 07:04:49;;;;;;;10.57;5.03;;;;;;;24.08;100.00;100601.84;2038372;29;20051;-77
2023/05/29 07:06:11;;;;;;;9.48;4.80;;;;;;;24.00;100.00;100617.47;2046014;28;20298;-76
2023/05/29 07:07:34;;;;;;;11.00;5.22;;;;;;;23.90;100.00;100608.00;2050796;28;20712;-78
2023/05/29 07:08:56;;;;;;;10.45;5.28;;;;;;;23.82;100.00;100611.91;2067923;28;20049;-78
2023/05/29 07:10:19;;;;;;;13.63;5.72;;;;;;;23.76;100.00;100603.19;2073897;28;20038;-78
2023/05/29 07:11:42;;;;;;;12.05;5.18;;;;;;;23.78;100.00;100596.78;2082759;28;20053;-78
2023/05/29 07:13:06;;;;;;;11.52;4.97;;;;;;;23.92;100.00;100600.72;2068558;28;20400;-78
2023/05/29 07:14:29;;;;;;;12.50;5.90;;;;;;;23.94;100.00;100599.72;2072827;28;20514;-77
2023/05/29 07:15:51;;;;;;;11.25;5.05;;;;;;;23.94;100.00;100610.53;2060466;28;20654;-77
2023/05/29 07:17:19;;;;;;;9.30;5.28;;;;;;;23.89;100.00;100617.94;2067841;28;20045;-77
2023/05/29 07:18:43;;;;;;;10.80;5.28;;;;;;;23.91;100.00;100620.53;2057186;28;20038;-78
2023/05/29 07:20:09;;;;;;;14.15;5.45;;;;;;;23.98;100.00;100613.94;2064245;28;20049;-77
2023/05/29 07:21:32;;;;;;;11.05;5.38;;;;;;;24.04;100.00;100611.00;2071209;28;20919;-77
2023/05/29 07:22:55;;;;;;;13.65;5.10;;;;;;;24.09;100.00;100622.50;2063801;28;20049;-77
2023/05/29 07:24:19;;;;;;;10.43;5.13;;;;;;;24.17;100.00;100620.31;2060075;28;20046;-77
2023/05/29 07:25:41;;;;;;;10.43;5.60;;;;;;;24.30;100.00;100618.88;2075315;28;20057;-77
2023/05/29 07:27:03;;;;;;;10.27;4.78;;;;;;;24.38;100.00;100626.66;2085975;28;20060;-76
2023/05/29 07:28:26;;;;;;;9.55;4.32;;;;;;;24.53;100.00;100631.38;2097090;28;20055;-77
2023/05/29 07:29:49;;;;;;;11.63;5.22;;;;;;;24.68;100.00;100619.88;2102529;28;20069;-77
2023/05/29 07:31:11;;;;;;;10.15;5.00;;;;;;;24.87;100.00;100623.53;2097405;28;20044;-77
2023/05/29 07:32:36;;;;;;;12.63;4.80;;;;;;;25.23;100.00;100629.09;2101254;28;20504;-75
2023/05/29 07:33:58;;;;;;;9.23;4.90;;;;;;;25.49;100.00;100621.56;2107270;28;20138;-74
2023/05/29 07:35:21;;;;;;;9.57;4.63;;;;;;;25.51;100.00;100628.66;2099766;28;20638;-74
2023/05/29 07:36:59;;;;;;;9.65;4.65;;;;;;;25.51;100.00;100627.78;2105998;28;20059;-73
2023/05/29 07:38:22;;;;;;;12.50;4.95;;;;;;;25.46;100.00;100629.81;2100666;28;20052;-74
2023/05/29 07:39:45;;;;;;;12.32;5.30;;;;;;;25.37;100.00;100631.13;2105627;28;20039;-75
2023/05/29 07:41:34;;;;;;;11.10;4.70;;;;;;;25.22;100.00;100626.44;2087850;28;20117;-74
2023/05/29 07:43:01;;;;;;;13.05;4.88;;;;;;;25.16;100.00;100627.63;2104473;28;20044;-75
2023/05/29 07:44:37;;;;;;;10.85;5.00;;;;;;;25.15;100.00;100635.78;2126379;27;20411;-74
2023/05/29 07:46:00;;;;;;;46.63;9.05;;;;;;;25.23;100.00;100626.38;2121884;27;20053;-75
2023/05/29 07:47:23;;;;;;;8.57;4.70;;;;;;;25.36;100.00;100630.25;2114597;28;20039;-75
2023/05/29 07:48:46;;;;;;;12.55;4.80;;;;;;;25.35;100.00;100633.03;2125864;27;20126;-74
2023/05/29 07:50:10;;;;;;;10.57;4.93;;;;;;;25.24;100.00;100620.03;2116350;27;20513;-74
2023/05/29 07:51:33;;;;;;;12.40;4.72;;;;;;;25.18;100.00;100632.94;2117733;28;20063;-73
2023/05/29 07:52:57;;;;;;;10.10;4.60;;;;;;;25.12;100.00;100628.72;2122427;27;20038;-74
2023/05/29 07:54:20;;;;;;;9.60;5.05;;;;;;;25.08;100.00;100628.91;2123112;27;20090;-75
2023/05/29 07:55:43;;;;;;;10.27;5.05;;;;;;;25.14;100.00;100639.47;2125898;27;20051;-76
2023/05/29 07:57:09;;;;;;;11.80;5.35;;;;;;;25.12;100.00;100636.81;2117379;27;20043;-78
2023/05/29 07:58:33;;;;;;;8.35;4.80;;;;;;;25.06;100.00;100639.81;2115229;27;20039;-77
2023/05/29 07:59:58;;;;;;;15.63;5.82;;;;;;;24.90;100.00;100636.03;2120250;27;20612;-78
2023/05/29 08:01:25;;;;;;;15.85;5.97;;;;;;;24.78;100.00;100634.75;2125849;27;20120;-77
2023/05/29 08:02:49;;;;;;;11.40;5.32;;;;;;;24.92;100.00;100639.56;2117827;27;20051;-77
2023/05/29 08:04:34;;;;;;;10.63;5.32;;;;;;;24.97;100.00;100633.00;2125548;27;20587;-74
2023/05/29 08:05:57;;;;;;;10.18;4.72;;;;;;;25.01;100.00;100639.13;2116159;27;20047;-74
2023/05/29 08:07:20;;;;;;;10.55;5.28;;;;;;;25.13;100.00;100638.59;2105576;28;20043;-74
2023/05/29 08:08:43;;;;;;;10.93;4.95;;;;;;;25.38;100.00;100632.91;2117003;27;20050;-74
2023/05/29 08:10:08;;;;;;;11.15;5.30;;;;;;;25.62;100.00;100637.16;2122214;27;20099;-73
2023/05/29 08:11:33;;;;;;;10.35;3.92;;;;;;;25.77;100.00;100640.94;2114107;27;20507;-74
2023/05/29 08:12:56;;;;;;;8.38;4.45;;;;;;;25.91;100.00;100635.72;2106246;28;20052;-74
2023/05/29 08:14:19;;;;;;;9.52;4.80;;;;;;;26.04;100.00;100633.28;2115502;27;20047;-74
2023/05/29 08:15:43;;;;;;;10.45;4.70;;;;;;;26.24;100.00;100641.31;2113679;27;20058;-73
2023/05/29 08:17:06;;;;;;;12.27;4.78;;;;;;;26.36;100.00;100634.38;2110128;27;20047;-75
2023/05/29 08:18:28;;;;;;;7.45;4.68;;;;;;;26.51;100.00;100633.59;2114666;27;20110;-74
2023/05/29 08:19:52;;;;;;;10.50;5.00;;;;;;;26.62;100.00;100625.75;2119208;27;20503;-74
2023/05/29 08:21:14;;;;;;;11.90;5.45;;;;;;;26.76;100.00;100638.59;2124159;27;20673;-74
2023/05/29 08:22:37;;;;;;;8.80;5.35;;;;;;;26.87;100.00;100637.03;2127228;27;20050;-75
2023/05/29 08:24:00;;;;;;;7.40;4.85;;;;;;;26.81;97.65;100641.91;2124044;27;20041;-74
2023/05/29 08:25:22;;;;;;;8.93;4.97;;;;;;;26.71;97.00;100630.72;2121701;27;20050;-74
2023/05/29 08:26:45;;;;;;;7.93;4.40;;;;;;;26.70;95.48;100628.94;2118845;27;20391;-75
2023/05/29 08:28:07;;;;;;;9.43;4.43;;;;;;;26.71;96.35;100648.78;2128111;27;20058;-74
2023/05/29 08:29:30;;;;;;;10.25;4.80;;;;;;;26.74;94.92;100635.94;2126907;27;20394;-74
2023/05/29 08:30:52;;;;;;;9.43;4.70;;;;;;;26.81;95.25;100637.38;2128324;27;20043;-74
2023/05/29 08:32:15;;;;;;;11.32;4.65;;;;;;;26.93;95.43;100636.75;2127000;27;20062;-75
2023/05/29 08:33:37;;;;;;;12.07;4.80;;;;;;;26.99;97.01;100635.53;2127961;27;20054;-74
2023/05/29 08:35:02;;;;;;;8.70;4.80;;;;;;;27.04;96.12;100633.47;2128179;27;20518;-75
2023/05/29 08:36:26;;;;;;;10.27;4.47;;;;;;;26.99;95.33;100635.53;2120112;27;20046;-74
2023/05/29 08:37:49;;;;;;;11.93;5.15;;;;;;;26.76;92.43;100642.16;2115240;27;20051;-74
2023/05/29 08:39:12;;;;;;;9.70;4.60;;;;;;;26.53;95.04;100637.06;2128048;27;20043;-74
2023/05/29 08:40:34;;;;;;;13.93;4.60;;;;;;;26.53;97.33;100637.06;2119598;27;20069;-74
2023/05/29 08:42:01;;;;;;;10.60;4.60;;;;;;;26.63;99.68;100632.94;2126318;27;20042;-74
2023/05/29 08:43:23;;;;;;;8.88;4.05;;;;;;;26.66;98.45;100632.75;2119751;27;20092;-74
2023/05/29 08:44:49;;;;;;;10.77;4.30;;;;;;;26.61;98.47;100632.13;2118386;27;20503;-74
2023/05/29 08:46:15;;;;;;;8.90;4.53;;;;;;;26.56;97.80;100636.94;2119911;27;20051;-74
2023/05/29 08:47:41;;;;;;;8.55;4.75;;;;;;;26.39;95.05;100642.31;2111710;28;20482;-74
2023/05/29 08:49:04;;;;;;;9.60;5.03;;;;;;;26.30;96.48;100641.00;2116120;27;20042;-75
2023/05/29 08:50:28;;;;;;;10.93;5.18;;;;;;;26.25;98.64;100643.06;2124362;27;20108;-75
2023/05/29 08:51:59;;;;;;;9.32;4.68;;;;;;;26.20;98.92;100645.94;2127725;27;20626;-73
2023/05/29 08:53:22;;;;;;;11.55;5.07;;;;;;;26.16;99.65;100641.66;2128668;27;20518;-73
2023/05/29 08:54:46;;;;;;;9.48;4.80;;;;;;;26.20;100.00;100637.81;2126477;27;20046;-74
2023/05/29 08:56:08;;;;;;;13.52;5.10;;;;;;;26.18;99.61;100639.75;2122028;27;20050;-74
2023/05/29 08:57:30;;;;;;;11.07;4.78;;;;;;;26.18;99.39;100647.00;2126893;27;20571;-74
2023/05/29 08:58:55;;;;;;;11.27;4.60;;;;;;;26.27;99.05;100640.25;2121029;27;20096;-73
2023/05/29 09:00:18;;;;;;;9.70;4.80;;;;;;;26.46;100.00;100639.22;2124681;27;20573;-73
2023/05/29 09:01:42;;;;;;;13.18;5.68;;;;;;;26.77;100.00;100635.78;2110901;28;20458;-74
2023/05/29 09:03:04;;;;;;;10.95;4.53;;;;;;;26.93;100.00;100641.28;2115749;27;20086;-74
2023/05/29 09:04:30;;;;;;;11.95;4.30;;;;;;;27.09;99.75;100641.34;2118707;27;20109;-74
2023/05/29 09:06:00;;;;;;;10.60;4.00;;;;;;;27.25;99.13;100650.38;2114000;27;20071;-74
2023/05/29 09:07:22;;;;;;;9.73;4.22;;;;;;;27.40;97.65;100643.22;2123527;27;20059;-74
2023/05/29 09:08:44;;;;;;;;;;;;;;;27.45;96.22;100649.25;2135316;27;20063;-73
2023/05/29 09:10:07;;;;;;;;;;;;;;;27.51;96.24;100652.50;2130173;27;20298;-74
2023/05/29 09:11:30;;;;;;;10.65;4.13;;;;;;;27.62;97.08;100651.94;2127652;27;19930;-74
2023/05/29 09:12:53;;;;;;;10.52;3.83;;;;;;;27.71;94.35;100651.41;2129272;27;20414;-74
2023/05/29 09:14:35;;;;;;;7.90;3.83;;;;;;;27.74;92.66;100652.13;2110470;28;20050;-74
2023/05/29 09:16:00;;;;;;;8.50;3.78;;;;;;;27.71;93.29;100660.41;2115210;27;20649;-75
2023/05/29 09:17:22;;;;;;;9.57;4.45;;;;;;;27.80;94.04;100653.59;2124366;27;20053;-75
2023/05/29 09:18:46;;;;;;;11.50;4.13;;;;;;;27.96;93.50;100653.59;2128086;27;20085;-75
2023/05/29 09:20:17;;;;;;;7.05;4.07;;;;;;;28.09;90.27;100658.19;2121947;27;20035;-75
2023/05/29 09:21:41;;;;;;;9.23;3.70;;;;;;;28.25;92.21;100654.63;2127083;27;20155;-74
2023/05/29 09:23:06;;;;;;;10.60;4.57;;;;;;;28.47;90.17;100661.41;2116874;27;20106;-75
2023/05/29 09:24:29;;;;;;;9.70;4.05;;;;;;;28.62;89.00;100651.44;2122613;27;20043;-75
2023/05/29 09:25:53;;;;;;;7.90;4.25;;;;;;;28.75;85.62;100652.47;2125607;27;20137;-73
2023/05/29 09:27:16;;;;;;;11.55;4.15;;;;;;;28.60;81.91;100663.38;2119815;27;20131;-74
2023/05/29 09:28:38;;;;;;;9.15;4.18;;;;;;;28.50;85.51;100658.50;2119655;27;20043;-74
2023/05/29 09:30:00;;;;;;;9.82;4.10;;;;;;;28.50;85.72;100660.34;2119496;27;20042;-74
2023/05/29 09:31:22;;;;;;;10.75;3.95;;;;;;;28.58;85.11;100659.88;2115593;27;20031;-74
2023/05/29 09:32:45;;;;;;;7.20;3.35;;;;;;;28.64;84.68;100659.50;2111484;27;20057;-74
2023/05/29 09:34:07;;;;;;;7.82;4.03;;;;;;;28.80;85.41;100660.34;2123516;27;20065;-74
2023/05/29 09:35:35;;;;;;;9.45;3.88;;;;;;;29.05;84.41;100660.56;2119874;27;20533;-73
2023/05/29 09:37:08;;;;;;;8.43;3.40;;;;;;;29.19;81.11;100659.72;2120277;27;20079;-74
2023/05/29 09:38:31;;;;;;;9.15;3.72;;;;;;;29.31;81.23;100656.19;2126666;27;20062;-74
2023/05/29 09:39:53;;;;;;;12.07;4.72;;;;;;;29.52;80.49;100648.53;2119029;27;20443;-74
2023/05/29 09:41:23;;;;;;;10.40;4.20;;;;;;;29.75;80.66;100649.75;2126421;27;20449;-74
2023/05/29 09:42:48;;;;;;;7.82;3.63;;;;;;;29.86;78.93;100658.97;2119812;27;20142;-74
2023/05/29 09:44:14;;;;;;;9.95;4.15;;;;;;;29.79;75.12;100662.22;2119127;27;20042;-74
2023/05/29 09:45:40;;;;;;;10.23;3.75;;;;;;;29.70;75.30;100658.22;2120561;27;20043;-74
2023/05/29 09:47:02;;;;;;;7.00;3.65;;;;;;;29.65;75.81;100653.09;2112797;27;20155;-73
2023/05/29 09:48:25;;;;;;;8.82;3.75;;;;;;;29.69;75.33;100649.19;2120671;27;20043;-74
2023/05/29 09:49:48;;;;;;;8.48;3.50;;;;;;;29.63;74.30;100646.00;2120909;27;21137;-74
2023/05/29 09:51:21;;;;;;;9.95;3.65;;;;;;;29.67;76.10;100655.69;2116495;27;20051;-74
2023/05/29 09:52:46;;;;;;;9.93;4.22;;;;;;;29.64;74.27;100655.91;2120270;27;20043;-74
2023/05/29 09:54:15;;;;;;;10.60;4.22;;;;;;;29.57;74.34;100660.00;2113113;27;20047;-74
2023/05/29 09:55:37;;;;;;;9.68;3.97;;;;;;;29.55;74.56;100667.38;2121840;27;20043;-74
2023/05/29 09:57:00;;;;;;;7.72;3.90;;;;;;;29.52;72.54;100660.31;2117357;27;20043;-74
2023/05/29 09:58:24;;;;;;;8.70;3.78;;;;;;;29.42;71.93;100658.25;2125896;27;20059;-74
2023/05/29 09:59:51;;;;;;;11.52;3.83;;;;;;;29.35;74.13;100667.78;2125624;27;20046;-74
2023/05/29 10:01:15;;;;;;;8.80;3.95;;;;;;;29.41;75.54;100668.25;2128205;27;20144;-73
2023/05/29 10:02:38;;;;;;;10.57;3.92;;;;;;;29.45;75.42;100675.28;2127708;27;20089;-74
2023/05/29 10:04:00;;;;;;;9.52;4.32;;;;;;;29.41;74.75;100665.53;2126230;27;20053;-73
2023/05/29 10:05:22;;;;;;;10.45;4.07;;;;;;;29.40;75.56;100671.09;2126721;27;20442;-74
2023/05/29 10:06:48;;;;;;;11.10;4.50;;;;;;;29.33;74.46;100659.72;2124847;27;20390;-74
2023/05/29 10:08:14;;;;;;;13.93;4.75;;;;;;;29.22;74.98;100657.66;2118467;27;20046;-74
2023/05/29 10:09:42;;;;;;;12.15;4.72;;;;;;;29.22;76.32;100673.09;2122612;27;20086;-74
2023/05/29 10:11:09;;;;;;;9.73;4.20;;;;;;;29.13;74.75;100658.25;2127317;27;20037;-74
2023/05/29 10:12:34;;;;;;;13.45;4.28;;;;;;;29.16;77.00;100659.88;2121695;27;20137;-74
2023/05/29 10:13:58;;;;;;;11.57;4.78;;;;;;;29.30;77.41;100655.31;2119552;27;20085;-74
2023/05/29 10:15:21;;;;;;;8.77;4.53;;;;;;;29.34;75.79;100657.91;2121527;27;20042;-75
2023/05/29 10:16:47;;;;;;;10.55;4.45;;;;;;;29.27;73.57;100663.69;2118432;27;20043;-75
2023/05/29 10:18:19;;;;;;;11.15;5.45;;;;;;;29.26;75.59;100674.66;2112896;27;20748;-74
2023/05/29 10:19:43;;;;;;;10.38;4.40;;;;;;;29.18;75.98;100669.72;2125640;27;20058;-73
2023/05/29 10:21:08;;;;;;;10.73;5.00;;;;;;;29.11;74.99;100662.91;2122017;27;20071;-74
2023/05/29 10:22:33;;;;;;;11.00;4.60;;;;;;;29.03;74.72;100665.22;2108658;28;20054;-75
2023/05/29 10:23:58;;;;;;;11.77;5.38;;;;;;;29.01;74.81;100669.91;2120139;27;20546;-75
2023/05/29 10:25:22;;;;;;;10.40;4.88;;;;;;;29.10;76.47;100669.31;2121497;27;20037;-75
2023/05/29 10:26:48;;;;;;;11.05;4.20;;;;;;;29.18;74.40;100669.72;2120122;27;20071;-74
2023/05/29 10:28:10;;;;;;;10.05;5.10;;;;;;;29.21;74.85;100666.78;2111909;27;20074;-74
2023/05/29 10:29:39;;;;;;;12.07;4.90;;;;;;;29.21;74.26;100666.78;2107771;28;20067;-74
2023/05/29 10:31:08;;;;;;;9.13;4.65;;;;;;;29.26;74.20;100661.94;2125549;27;20069;-75
2023/05/29 10:32:39;;;;;;;7.93;4.45;;;;;;;29.29;72.28;100669.03;2127384;27;20607;-74
2023/05/29 10:34:16;;;;;;;11.48;4.38;;;;;;;29.17;71.59;100667.97;2124527;27;20065;-74
2023/05/29 10:35:47;;;;;;;16.00;5.57;;;;;;;29.07;73.21;100666.81;2112352;28;20415;-74
2023/05/29 10:37:25;;;;;;;10.88;5.20;;;;;;;29.00;74.11;100670.00;2117484;27;20043;-75
2023/05/29 10:38:48;;;;;;;12.02;5.10;;;;;;;28.98;76.06;100667.38;2129214;27;20043;-74
2023/05/29 10:40:12;;;;;;;12.68;7.57;;;;;;;28.95;74.43;100670.25;2121805;27;20054;-75
2023/05/29 10:41:39;;;;;;;11.07;5.75;;;;;;;28.81;75.56;100673.84;2127457;27;20095;-75
2023/05/29 10:43:01;;;;;;;13.35;5.82;;;;;;;28.73;76.96;100676.13;2127818;27;20066;-74
2023/05/29 10:44:40;;;;;;;12.43;5.95;;;;;;;28.77;80.73;100676.84;2126313;27;20073;-74
2023/05/29 10:46:03;;;;;;;11.85;4.93;;;;;;;28.87;81.45;100672.59;2125818;27;20046;-74
2023/05/29 10:47:24;;;;;;;10.30;4.93;;;;;;;28.90;79.32;100677.84;2125285;27;20053;-74
2023/05/29 10:48:50;;;;;;;10.23;5.53;;;;;;;28.97;79.91;100671.03;2127089;27;20046;-74
2023/05/29 10:50:11;;;;;;;11.32;4.63;;;;;;;28.95;77.88;100672.13;2129973;27;20113;-74
2023/05/29 10:51:35;;;;;;;13.23;5.68;;;;;;;28.81;76.78;100672.97;2121265;28;20043;-75
2023/05/29 10:52:58;;;;;;;16.73;5.15;;;;;;;28.75;77.30;100679.63;2119085;28;20190;-75
2023/05/29 10:54:23;;;;;;;11.90;5.10;;;;;;;28.74;78.09;100671.56;2123622;27;20046;-74
2023/05/29 10:55:47;;;;;;;13.20;5.72;;;;;;;28.81;77.39;100672.97;2126667;27;20047;-75
2023/05/29 10:57:10;;;;;;;13.20;5.35;;;;;;;28.69;74.87;100674.53;2119865;27;20043;-75
2023/05/29 10:58:31;;;;;;;11.70;4.55;;;;;;;28.57;77.73;100674.41;2126528;27;20055;-76
2023/05/29 11:00:04;;;;;;;10.52;5.25;;;;;;;28.46;78.70;100673.25;2119304;27;21052;-75
2023/05/29 11:01:27;;;;;;;8.35;4.60;;;;;;;28.34;79.30;100665.81;2127042;27;20269;-76
2023/05/29 11:02:49;;;;;;;12.45;5.40;;;;;;;28.27;80.67;100671.72;2127364;27;20043;-75
2023/05/29 11:04:31;;;;;;;13.65;5.32;;;;;;;28.32;81.18;100673.19;2127056;27;20039;-75
2023/05/29 11:06:01;;;;;;;11.68;4.95;;;;;;;28.42;82.49;100671.66;2121482;28;20077;-77
2023/05/29 11:07:36;;;;;;;13.57;5.10;;;;;;;28.54;82.12;100670.06;2121880;27;20059;-76
2023/05/29 11:09:01;;;;;;;10.55;4.95;;;;;;;28.62;82.95;100672.31;2131885;27;20760;-76
2023/05/29 11:10:56;;;;;;;12.05;4.63;;;;;;;28.74;82.55;100672.47;2126284;27;20097;-76
2023/05/29 11:12:33;;;;;;;12.63;4.78;;;;;;;28.81;83.20;100679.28;2123044;27;20060;-77
2023/05/29 11:13:56;;;;;;;8.48;4.15;;;;;;;28.82;81.73;100666.53;2122984;27;20510;-77
2023/05/29 11:15:18;;;;;;;11.27;4.75;;;;;;;28.85;82.76;100663.66;2118259;28;20043;-77
2023/05/29 11:16:40;;;;;;;12.73;4.75;;;;;;;28.98;80.71;100670.09;2126103;27;20405;-77
2023/05/29 11:18:06;;;;;;;10.98;4.97;;;;;;;29.13;78.86;100673.69;2116032;27;20042;-78
2023/05/29 11:19:29;;;;;;;13.85;4.57;;;;;;;29.24;79.63;100663.88;2119246;27;20062;-77
2023/05/29 11:20:58;;;;;;;12.90;4.95;;;;;;;29.37;78.29;100661.28;2117972;28;20451;-77
2023/05/29 11:22:28;;;;;;;8.65;4.15;;;;;;;29.39;76.37;100677.50;2119773;27;20514;-77
2023/05/29 11:23:52;;;;;;;10.85;4.93;;;;;;;29.35;75.09;100665.06;2111086;28;20051;-77
2023/05/29 11:25:14;;;;;;;10.25;4.95;;;;;;;29.32;74.54;100664.28;2110268;28;20092;-77
2023/05/29 11:26:39;;;;;;;10.98;4.80;;;;;;;29.29;74.28;100664.47;2107938;28;20464;-78
2023/05/29 11:28:03;;;;;;;9.45;4.50;;;;;;;29.32;73.32;100668.84;2117594;27;20043;-77
2023/05/29 11:29:30;;;;;;;10.40;5.00;;;;;;;29.38;72.66;100671.19;2109946;28;20040;-78
2023/05/29 11:30:53;;;;;;;12.52;4.97;;;;;;;29.38;73.85;100670.31;2117643;27;20051;-77
2023/05/29 11:32:18;;;;;;;11.98;4.90;;;;;;;29.41;72.20;100662.81;2117076;27;20475;-77
2023/05/29 11:33:42;;;;;;;11.52;4.50;;;;;;;29.35;69.55;100656.91;2121415;27;20042;-77
2023/05/29 11:35:09;;;;;;;9.27;5.20;;;;;;;29.26;71.29;100670.09;2126818;27;20045;-78
2023/05/29 11:36:34;;;;;;;15.20;5.10;;;;;;;29.29;72.39;100672.63;2131268;27;20510;-77
2023/05/29 11:37:58;;;;;;;10.07;4.60;;;;;;;29.35;73.07;100662.34;2130380;27;20070;-77
2023/05/29 11:39:20;;;;;;;10.90;5.05;;;;;;;29.45;71.95;100669.84;2129084;27;20117;-77
2023/05/29 11:40:42;;;;;;;10.48;5.05;;;;;;;29.52;71.30;100670.31;2128985;27;20039;-77
2023/05/29 11:42:07;;;;;;;13.43;5.78;;;;;;;29.54;69.36;100673.78;2117900;27;20146;-77
2023/05/29 11:43:30;;;;;;;11.48;5.43;;;;;;;29.52;68.97;100667.59;2124617;27;20046;-77
2023/05/29 11:44:53;;;;;;;11.35;5.70;;;;;;;29.50;70.20;100656.81;2116624;27;20729;-78
2023/05/29 11:46:18;;;;;;;12.80;5.68;;;;;;;29.48;70.96;100663.31;2125727;27;20042;-76
2023/05/29 11:47:54;;;;;;;12.20;4.90;;;;;;;29.47;71.72;100656.97;2120683;27;20083;-77
2023/05/29 11:49:29;;;;;;;9.75;5.45;;;;;;;29.40;73.49;100669.25;2122727;27;20518;-77
2023/05/29 11:50:52;;;;;;;12.05;5.32;;;;;;;29.36;73.79;100658.66;2128876;27;20042;-77
2023/05/29 11:52:16;;;;;;;14.18;4.82;;;;;;;29.29;73.22;100663.56;2127630;27;20066;-76
2023/05/29 11:53:42;;;;;;;11.98;5.00;;;;;;;29.27;73.53;100665.53;2120441;27;20051;-76
2023/05/29 11:55:08;;;;;;;11.02;5.47;;;;;;;29.26;74.23;100661.06;2126772;27;20062;-76
2023/05/29 11:56:31;;;;;;;10.02;4.78;;;;;;;29.28;75.19;100667.25;2114298;27;20165;-76
2023/05/29 11:57:59;;;;;;;9.13;5.13;;;;;;;29.30;73.84;100668.06;2115708;27;20085;-76
2023/05/29 11:59:21;;;;;;;13.88;5.72;;;;;;;29.35;73.67;100659.63;2114883;27;20043;-76
2023/05/29 12:00:44;;;;;;;12.93;5.38;;;;;;;29.32;73.69;100668.84;2115191;27;20437;-76
2023/05/29 12:02:06;;;;;;;8.65;4.72;;;;;;;29.35;74.07;100660.50;2118219;27;20446;-75
2023/05/29 12:03:28;;;;;;;9.02;4.53;;;;;;;29.44;72.96;100665.38;2116651;27;20101;-75
2023/05/29 12:05:00;;;;;;;11.10;4.32;;;;;;;29.46;70.44;100670.72;2122223;27;20084;-76
2023/05/29 12:06:34;;;;;;;12.73;4.57;;;;;;;29.46;70.35;100665.28;2109772;27;20035;-76
2023/05/29 12:07:56;;;;;;;10.25;4.78;;;;;;;29.41;70.66;100662.81;2119096;27;20542;-76
2023/05/29 12:09:26;;;;;;;10.52;4.75;;;;;;;29.39;71.34;100666.63;2116483;27;20043;-77
2023/05/29 12:10:48;;;;;;;9.38;4.70;;;;;;;29.39;69.32;100666.63;2128248;27;20140;-76
2023/05/29 12:12:11;;;;;;;9.98;4.50;;;;;;;29.30;68.82;100665.34;2122779;27;20031;-76
2023/05/29 12:13:36;;;;;;;10.30;4.63;;;;;;;29.24;69.94;100663.00;2119697;27;20078;-76
2023/05/29 12:14:58;;;;;;;9.45;4.20;;;;;;;29.22;71.14;100671.25;2123622;27;20054;-76
2023/05/29 12:16:21;;;;;;;12.65;4.47;;;;;;;29.26;71.32;100667.38;2126235;27;20422;-75
2023/05/29 12:17:44;;;;;;;9.40;4.20;;;;;;;29.35;70.30;100670.50;2119822;27;20480;-77
2023/05/29 12:19:07;;;;;;;8.98;4.53;;;;;;;29.40;69.62;100665.66;2118793;27;20047;-76
2023/05/29 12:20:30;;;;;;;9.55;4.13;;;;;;;29.39;67.40;100666.63;2123609;27;20884;-76
2023/05/29 12:21:52;;;;;;;11.02;4.32;;;;;;;29.30;65.33;100662.63;2127285;27;20047;-76
2023/05/29 12:23:16;;;;;;;8.95;3.50;;;;;;;29.17;64.33;100675.25;2124810;27;20057;-75
2023/05/29 12:24:37;;;;;;;8.30;3.97;;;;;;;29.01;65.17;100660.88;2119975;27;20086;-77
2023/05/29 12:26:00;;;;;;;8.70;3.88;;;;;;;28.89;64.64;100662.47;2111026;28;20104;-75
2023/05/29 12:27:21;;;;;;;9.07;3.90;;;;;;;28.86;64.65;100663.56;2116799;27;20047;-76
2023/05/29 12:28:46;;;;;;;8.23;3.95;;;;;;;28.90;64.97;100661.53;2103989;28;20043;-76
2023/05/29 12:30:09;;;;;;;10.73;3.95;;;;;;;28.98;64.26;100653.78;2114645;27;20063;-76
2023/05/29 12:31:32;;;;;;;8.38;3.42;;;;;;;29.09;64.39;100647.66;2123258;27;20566;-76
2023/05/29 12:32:55;;;;;;;9.50;3.83;;;;;;;29.18;63.26;100657.97;2126514;27;20057;-76
2023/05/29 12:34:19;;;;;;;10.25;3.17;;;;;;;29.27;62.03;100658.25;2113848;27;20035;-76
2023/05/29 12:35:47;;;;;;;11.43;3.90;;;;;;;29.32;61.14;100660.69;2120874;27;20055;-77
2023/05/29 12:37:13;;;;;;;8.65;3.55;;;;;;;29.33;61.01;100646.13;2117531;27;20035;-76
2023/05/29 12:38:48;;;;;;;9.57;3.50;;;;;;;29.46;61.08;100657.09;2122786;27;20082;-76
2023/05/29 12:40:11;;;;;;;7.95;3.60;;;;;;;29.55;59.90;100653.78;2129047;27;20327;-76
2023/05/29 12:41:35;;;;;;;6.60;3.30;;;;;;;29.65;60.50;100654.94;2117418;27;20079;-76
2023/05/29 12:42:59;;;;;;;9.25;3.08;;;;;;;29.69;60.97;100648.31;2123515;27;20034;-76
2023/05/29 12:44:24;;;;;;;7.45;3.58;;;;;;;29.74;59.16;100651.59;2121366;27;20074;-76
2023/05/29 12:45:47;;;;;;;7.35;3.22;;;;;;;29.81;57.10;100650.22;2118863;27;20135;-77
2023/05/29 12:47:10;;;;;;;9.55;3.47;;;;;;;29.87;57.73;100647.09;2125228;27;20050;-76
2023/05/29 12:48:32;;;;;;;7.95;3.50;;;;;;;29.98;58.06;100643.72;2123073;27;20054;-76
2023/05/29 12:49:55;;;;;;;10.77;3.78;;;;;;;30.08;56.03;100644.81;2122396;27;20407;-76
2023/05/29 12:51:23;;;;;;;6.18;2.75;;;;;;;30.17;55.58;100635.16;2118568;27;20035;-76
2023/05/29 12:52:45;;;;;;;8.35;3.53;;;;;;;30.14;56.78;100641.69;2112049;28;20079;-75
2023/05/29 12:54:07;;;;;;;8.82;3.50;;;;;;;30.20;57.27;100637.66;2119354;27;20066;-76
2023/05/29 12:55:30;;;;;;;6.70;3.03;;;;;;;30.27;55.75;100639.00;2120434;27;20053;-75
2023/05/29 12:56:53;;;;;;;8.80;3.63;;;;;;;30.36;55.01;100646.56;2119059;27;20047;-76
2023/05/29 12:58:16;;;;;;;10.13;3.47;;;;;;;30.47;54.83;100644.81;2124441;27;20133;-75
2023/05/29 12:59:41;;;;;;;11.00;3.72;;;;;;;30.63;54.08;100652.00;2127542;27;20419;-76
2023/05/29 13:01:03;;;;;;;8.25;3.10;;;;;;;30.74;52.76;100650.25;2130358;27;20054;-76
2023/05/29 13:02:24;;;;;;;8.73;3.15;;;;;;;30.82;51.75;100649.72;2126645;27;20042;-76
2023/05/29 13:03:47;;;;;;;6.53;2.70;;;;;;;30.83;52.33;100654.19;2110756;28;20097;-77
2023/05/29 13:05:08;;;;;;;10.18;4.80;;;;;;;30.79;53.14;100658.09;2117068;27;20450;-76
2023/05/29 13:06:31;;;;;;;9.05;3.15;;;;;;;30.79;53.76;100650.78;2111090;28;20481;-76
2023/05/29 13:07:54;;;;;;;10.13;3.20;;;;;;;30.83;53.79;100657.78;2107940;28;20039;-76
2023/05/29 13:09:17;;;;;;;8.90;2.90;;;;;;;30.84;52.03;100654.09;2113298;27;20062;-76
2023/05/29 13:10:39;;;;;;;7.65;3.22;;;;;;;30.85;52.03;100646.78;2113320;27;20186;-76
2023/05/29 13:12:02;;;;;;;7.50;3.70;;;;;;;30.91;52.03;100665.44;2118554;27;20054;-75
2023/05/29 13:13:25;;;;;;;8.63;3.35;;;;;;;30.97;51.29;100653.22;2116898;27;20051;-75
2023/05/29 13:14:48;;;;;;;7.85;2.85;;;;;;;31.02;52.38;100651.91;2116506;27;20347;-75
2023/05/29 13:16:10;;;;;;;9.20;3.67;;;;;;;31.06;53.02;100652.56;2127496;27;20050;-75
2023/05/29 13:17:32;;;;;;;10.38;3.22;;;;;;;31.04;52.56;100649.06;2118441;27;20035;-76
2023/05/29 13:18:55;;;;;;;9.57;3.20;;;;;;;30.95;52.50;100645.13;2116707;27;20510;-76
2023/05/29 13:20:16;;;;;;;5.70;3.00;;;;;;;30.91;53.31;100648.19;2118606;27;20043;-76
2023/05/29 13:21:40;;;;;;;9.13;3.03;;;;;;;30.88;53.73;100650.16;2121938;27;20077;-76
2023/05/29 13:23:02;;;;;;;7.65;2.67;;;;;;;30.86;54.76;100646.66;2110891;28;20059;-75
2023/05/29 13:24:23;;;;;;;9.27;3.55;;;;;;;30.91;55.58;100650.94;2116507;27;20051;-76
2023/05/29 13:25:48;;;;;;;8.70;2.83;;;;;;;30.88;56.01;100644.69;2119532;27;20395;-75
2023/05/29 13:27:13;;;;;;;8.63;3.35;;;;;;;30.86;56.73;100649.38;2111520;28;20040;-76
2023/05/29 13:28:35;;;;;;;7.80;2.90;;;;;;;30.82;55.88;100641.53;2110606;27;20588;-76
2023/05/29 13:29:58;;;;;;;9.68;3.00;;;;;;;30.80;55.35;100640.75;2116531;27;20036;-76
2023/05/29 13:31:21;;;;;;;6.75;3.10;;;;;;;30.76;54.62;100644.69;2124421;27;20035;-75